Leathersville, Georgia
Current Conditions -  °F | °C
As of 8:55 AM on Monday 24 Nov 2014 (Local Time) from KHQU Reporting Station
Overcast Overcast  
Wind Chill: 67°   Ceiling: 800
Heat Index: 67°   Visibility: 10mi
Dew Point: 67°   Wind: 0mph
Humidity: 100%   Direction: NA
Pressure: 29.88"   Gusts: NA
Location:  33.7816°N, 82.4511°W
Report Text: KHQU 241355Z AUTO 00000KT 10SM BKN008 BKN011 OVC080 20/20 A2988 RMK AO1 T01970197
Loading
Personal Weather Stations






























Interactive Weather Map New forecast layout! Learn more

10-Day Weather Forecast

Advertisements
Track Severe Weather on mobile